Map

Track Data

SID SEASON NUMBER BASIN SUBBASIN NAME ISO_TIME NATURE LAT LON WMO_WIND WMO_PRES WMO_AGENCY TRACK_TYPE DIST2LAND LANDFALL IFLAG USA_AGENCY USA_ATCF_ID USA_LAT USA_LON USA_RECORD USA_STATUS USA_WIND USA_PRES USA_SSHS USA_R34_NE USA_R34_SE USA_R34_SW USA_R34_NW USA_R50_NE USA_R50_SE USA_R50_SW USA_R50_NW USA_R64_NE USA_R64_SE USA_R64_SW USA_R64_NW USA_POCI USA_ROCI USA_RMW USA_EYE TOKYO_LAT TOKYO_LON TOKYO_GRADE TOKYO_WIND TOKYO_PRES TOKYO_R50_DIR TOKYO_R50_LONG TOKYO_R50_SHORT TOKYO_R30_DIR TOKYO_R30_LONG TOKYO_R30_SHORT TOKYO_LAND CMA_LAT CMA_LON CMA_CAT CMA_WIND CMA_PRES HKO_LAT HKO_LON HKO_CAT HKO_WIND HKO_PRES NEWDELHI_LAT NEWDELHI_LON NEWDELHI_GRADE NEWDELHI_WIND NEWDELHI_PRES NEWDELHI_CI NEWDELHI_DP NEWDELHI_POCI REUNION_LAT REUNION_LON REUNION_TYPE REUNION_WIND REUNION_PRES REUNION_TNUM REUNION_CI REUNION_RMW REUNION_R34_NE REUNION_R34_SE REUNION_R34_SW REUNION_R34_NW REUNION_R50_NE REUNION_R50_SE REUNION_R50_SW REUNION_R50_NW REUNION_R64_NE REUNION_R64_SE REUNION_R64_SW REUNION_R64_NW BOM_LAT BOM_LON BOM_TYPE BOM_WIND BOM_PRES BOM_TNUM BOM_CI BOM_RMW BOM_R34_NE BOM_R34_SE BOM_R34_SW BOM_R34_NW BOM_R50_NE BOM_R50_SE BOM_R50_SW BOM_R50_NW BOM_R64_NE BOM_R64_SE BOM_R64_SW BOM_R64_NW BOM_ROCI BOM_POCI BOM_EYE BOM_POS_METHOD BOM_PRES_METHOD NADI_LAT NADI_LON NADI_CAT NADI_WIND NADI_PRES WELLINGTON_LAT WELLINGTON_LON WELLINGTON_WIND WELLINGTON_PRES DS824_LAT DS824_LON DS824_STAGE DS824_WIND DS824_PRES TD9636_LAT TD9636_LON TD9636_STAGE TD9636_WIND TD9636_PRES TD9635_LAT TD9635_LON TD9635_WIND TD9635_PRES TD9635_ROCI NEUMANN_LAT NEUMANN_LON NEUMANN_CLASS NEUMANN_WIND NEUMANN_PRES MLC_LAT MLC_LON MLC_CLASS MLC_WIND MLC_PRES USA_GUST BOM_GUST BOM_GUST_PER REUNION_GUST REUNION_GUST_PER USA_SEAHGT USA_SEARAD_NE USA_SEARAD_SE USA_SEARAD_SW USA_SEARAD_NW STORM_SPEED STORM_DIR
1909250N17119 1909 46 WP MM NOT_NAMED 1909-09-06 16:00:00 NR 16.9000 118.800 main 125 125 __________O___ -1 16.9000 118.800 2 7 274
1909250N17119 1909 46 WP MM NOT_NAMED 1909-09-06 18:00:00 NR 16.9170 118.563 main 144 153 __________P___ -1 16.9170 118.563 2 7 274
1909250N17119 1909 46 WP MM NOT_NAMED 1909-09-06 21:00:00 NR 16.9422 118.210 main 183 183 __________P___ -1 16.9422 118.210 2 7 274
1909250N17119 1909 46 WP MM NOT_NAMED 1909-09-07 00:00:00 NR 16.9670 117.859 main 217 227 __________P___ -1 16.9670 117.859 2 7 274
1909250N17119 1909 46 WP MM NOT_NAMED 1909-09-07 03:00:00 NR 16.9918 117.514 main 257 257 __________P___ -1 16.9918 117.514 2 7 274
1909250N17119 1909 46 WP MM NOT_NAMED 1909-09-07 04:00:00 NR 17.0000 117.400 main 267 267 __________O___ -1 17.0000 117.400 2 7 274
1909250N17119 1909 46 WP MM NOT_NAMED 1909-09-07 06:00:00 NR 17.0165 117.175 main 287 287 __________P___ -1 17.0165 117.175 2 6 274
1909250N17119 1909 46 WP MM NOT_NAMED 1909-09-07 09:00:00 NR 17.0415 116.844 main 328 328 __________P___ -1 17.0415 116.844 2 6 275
1909250N17119 1909 46 WP MM NOT_NAMED 1909-09-07 12:00:00 NR 17.0665 116.520 main 362 362 __________P___ -1 17.0665 116.520 2 6 275
1909250N17119 1909 46 WP MM NOT_NAMED 1909-09-07 15:00:00 NR 17.0916 116.204 main 392 392 __________P___ -1 17.0916 116.204 2 6 275
1909250N17119 1909 46 WP MM NOT_NAMED 1909-09-07 16:00:00 NR 17.1000 116.100 main 403 403 __________O___ -1 17.1000 116.100 2 6 275
1909250N17119 1909 46 WP MM NOT_NAMED 1909-09-07 18:00:00 NR 17.1164 115.907 main 423 423 __________P___ -1 17.1164 115.907 2 5 275
1909250N17119 1909 46 WP MM NOT_NAMED 1909-09-07 21:00:00 NR 17.1411 115.625 main 454 454 __________P___ -1 17.1411 115.625 2 6 275
1909250N17119 1909 46 WP MM NOT_NAMED 1909-09-08 00:00:00 NR 17.1661 115.334 main 487 487 __________P___ -1 17.1661 115.334 2 6 275
1909250N17119 1909 46 WP MM NOT_NAMED 1909-09-08 03:00:00 NR 17.1915 115.016 main 500 491 __________P___ -1 17.1915 115.016 2 6 275
1909250N17119 1909 46 WP MM NOT_NAMED 1909-09-08 04:00:00 NR 17.2000 114.900 main 491 473 __________O___ -1 17.2000 114.900 2 7 274
1909250N17119 1909 46 WP MM NOT_NAMED 1909-09-08 06:00:00 NR 17.2140 114.650 main 473 430 __________P___ -1 17.2140 114.650 2 8 273
1909250N17119 1909 46 WP MM NOT_NAMED 1909-09-08 09:00:00 NR 17.2349 114.245 main 430 387 __________P___ -1 17.2349 114.245 2 8 273
1909250N17119 1909 46 WP MM NOT_NAMED 1909-09-08 12:00:00 NR 17.2586 113.809 main 387 349 __________P___ -1 17.2586 113.809 2 9 274
1909250N17119 1909 46 WP MM NOT_NAMED 1909-09-08 15:00:00 NR 17.2882 113.354 main 349 331 __________P___ -1 17.2882 113.354 2 9 274
1909250N17119 1909 46 WP MM NOT_NAMED 1909-09-08 16:00:00 NR 17.3000 113.200 main 331 304 __________O___ -1 17.3000 113.200 2 9 275
1909250N17119 1909 46 WP MM NOT_NAMED 1909-09-08 18:00:00 NR 17.3252 112.876 main 304 254 __________P___ -1 17.3252 112.876 2 9 275
1909250N17119 1909 46 WP MM NOT_NAMED 1909-09-08 21:00:00 NR 17.3691 112.378 main 254 215 __________P___ -1 17.3691 112.378 2 9 276
1909250N17119 1909 46 WP MM NOT_NAMED 1909-09-09 00:00:00 NR 17.4204 111.889 main 215 170 __________P___ -1 17.4204 111.889 2 9 277
1909250N17119 1909 46 WP MM NOT_NAMED 1909-09-09 03:00:00 NR 17.4789 111.437 main 170 164 __________P___ -1 17.4789 111.437 2 9 278
1909250N17119 1909 46 WP MM NOT_NAMED 1909-09-09 04:00:00 NR 17.5000 111.300 main 164 153 __________O___ -1 17.5000 111.300 2 7 280
1909250N17119 1909 46 WP MM NOT_NAMED 1909-09-09 06:00:00 NR 17.5412 111.060 main 153 116 __________P___ -1 17.5412 111.060 2 7 282
1909250N17119 1909 46 WP MM NOT_NAMED 1909-09-09 09:00:00 NR 17.6097 110.744 main 116 94 __________P___ -1 17.6097 110.744 2 6 284
1909250N17119 1909 46 WP MM NOT_NAMED 1909-09-09 12:00:00 NR 17.6860 110.462 main 94 69 __________P___ -1 17.6860 110.462 2 6 287
1909250N17119 1909 46 WP MM NOT_NAMED 1909-09-09 15:00:00 NR 17.7702 110.191 main 69 61 __________P___ -1 17.7702 110.191 2 5 288
1909250N17119 1909 46 WP MM NOT_NAMED 1909-09-09 16:00:00 NR 17.8000 110.100 main 61 39 __________O___ -1 17.8000 110.100 2 6 289
1909250N17119 1909 46 WP MM NOT_NAMED 1909-09-09 18:00:00 NR 17.8619 109.912 main 39 22 __________P___ -1 17.8619 109.912 2 6 289
1909250N17119 1909 46 WP MM NOT_NAMED 1909-09-09 21:00:00 NR 17.9596 109.618 main 22 22 __________P___ -1 17.9596 109.618 2 6 289
1909250N17119 1909 46 WP MM NOT_NAMED 1909-09-10 00:00:00 NR 18.0614 109.314 main 23 22 __________P___ -1 18.0614 109.314 2 6 289
1909250N17119 1909 46 WP MM NOT_NAMED 1909-09-10 03:00:00 NR 18.1653 109.004 main 22 22 __________P___ -1 18.1653 109.004 2 6 289
1909250N17119 1909 46 WP MM NOT_NAMED 1909-09-10 04:00:00 NR 18.2000 108.900 main 24 __________O___ -1 18.2000 108.900 2 6 289

Digital Typhoon Data and Search

About IBTrACS Database

This database is a web-friendly format of International Best Track Archive for Climate Stewardship (IBTrACS), a global best track data archive curated by NOAA dating back to 1842.

Updated: 2021-10-21